createdAt,value
2022-11-18T00:00:11.789Z,961.58
2022-11-18T00:01:11.786Z,961.49
2022-11-18T00:02:11.815Z,961.48
2022-11-18T00:03:11.775Z,961.47
2022-11-18T00:04:11.731Z,961.52
2022-11-18T00:05:11.741Z,961.48
2022-11-18T00:06:11.712Z,961.38
2022-11-18T00:07:11.750Z,961.39
2022-11-18T00:08:11.689Z,961.42
2022-11-18T00:09:11.670Z,961.38
2022-11-18T00:10:11.668Z,961.39
2022-11-18T00:11:11.656Z,961.35
2022-11-18T00:12:11.631Z,961.33
2022-11-18T00:13:11.636Z,961.31
2022-11-18T00:14:11.603Z,961.28
2022-11-18T00:15:11.615Z,961.36
2022-11-18T00:16:11.572Z,961.25
2022-11-18T00:17:11.573Z,961.27
2022-11-18T00:18:11.572Z,961.28
2022-11-18T00:19:11.643Z,961.28
2022-11-18T00:20:11.572Z,961.31
2022-11-18T00:21:11.512Z,961.27
2022-11-18T00:22:11.563Z,961.33
2022-11-18T00:23:11.496Z,961.32
2022-11-18T00:24:11.571Z,961.30
2022-11-18T00:25:11.513Z,961.36
2022-11-18T00:26:11.443Z,961.32
2022-11-18T00:27:13.473Z,961.28
2022-11-18T00:28:11.494Z,961.25
2022-11-18T00:29:11.416Z,961.27
2022-11-18T00:30:11.442Z,961.22
2022-11-18T00:31:11.413Z,961.24
2022-11-18T00:32:11.374Z,961.31
2022-11-18T00:33:12.467Z,961.33
2022-11-18T00:34:11.438Z,961.26
2022-11-18T00:35:11.343Z,961.28
2022-11-18T00:36:11.342Z,961.31
2022-11-18T00:37:11.307Z,961.25
2022-11-18T00:38:11.318Z,961.22
2022-11-18T00:39:11.285Z,961.23
2022-11-18T00:40:11.273Z,961.21
2022-11-18T00:41:11.273Z,961.25
2022-11-18T00:42:11.246Z,961.25
2022-11-18T00:43:11.252Z,961.27
2022-11-18T00:44:11.217Z,961.27
2022-11-18T00:45:11.206Z,961.26
2022-11-18T00:46:11.205Z,961.29
2022-11-18T00:47:11.176Z,961.34
2022-11-18T00:48:11.168Z,961.44
2022-11-18T00:49:11.166Z,961.41
2022-11-18T00:50:11.177Z,961.41
2022-11-18T00:51:11.146Z,961.44
2022-11-18T00:52:11.118Z,961.45
2022-11-18T00:53:11.119Z,961.40
2022-11-18T00:54:11.096Z,961.34
2022-11-18T00:55:11.092Z,961.48
2022-11-18T00:56:11.078Z,961.45
2022-11-18T00:57:11.075Z,961.47
2022-11-18T00:58:11.047Z,961.50
2022-11-18T00:59:11.028Z,961.52
2022-11-18T01:00:11.016Z,961.55
2022-11-18T01:01:11.043Z,961.48
2022-11-18T01:02:10.999Z,961.45
2022-11-18T01:03:10.985Z,961.50
2022-11-18T01:04:10.964Z,961.48
2022-11-18T01:05:10.957Z,961.44
2022-11-18T01:06:10.957Z,961.44
2022-11-18T01:07:10.966Z,961.37
2022-11-18T01:08:10.917Z,961.42
2022-11-18T01:09:10.898Z,961.39
2022-11-18T01:10:10.888Z,961.43
2022-11-18T01:11:10.901Z,961.47
2022-11-18T01:12:10.856Z,961.46
2022-11-18T01:13:10.850Z,961.49
2022-11-18T01:14:10.830Z,961.38
2022-11-18T01:15:10.924Z,961.38
2022-11-18T01:16:10.906Z,961.44
2022-11-18T01:17:10.860Z,961.44
2022-11-18T01:18:10.789Z,961.42
2022-11-18T01:19:10.831Z,961.44
2022-11-18T01:20:10.830Z,961.43
2022-11-18T01:21:10.862Z,961.49
2022-11-18T01:22:10.741Z,961.47
2022-11-18T01:23:10.772Z,961.55
2022-11-18T01:24:10.752Z,961.50
2022-11-18T01:25:10.695Z,961.44
2022-11-18T01:26:10.671Z,961.44
2022-11-18T01:27:10.682Z,961.36
2022-11-18T01:28:10.681Z,961.39
2022-11-18T01:29:10.645Z,961.37
2022-11-18T01:30:10.692Z,961.37
2022-11-18T01:31:10.712Z,961.38
2022-11-18T01:32:24.550Z,961.31
2022-11-18T01:33:11.603Z,961.42
2022-11-18T01:34:10.583Z,961.39
2022-11-18T01:35:10.645Z,961.45
2022-11-18T01:36:10.561Z,961.41
2022-11-18T01:37:10.544Z,961.45
2022-11-18T01:38:10.522Z,961.45
2022-11-18T01:39:10.579Z,961.46
2022-11-18T01:40:10.499Z,961.38
2022-11-18T01:41:10.572Z,961.40
2022-11-18T01:42:10.486Z,961.42
2022-11-18T01:43:10.462Z,961.48
2022-11-18T01:44:10.453Z,961.47
2022-11-18T01:45:10.502Z,961.48
2022-11-18T01:46:10.497Z,961.54
2022-11-18T01:47:10.432Z,961.51
2022-11-18T01:48:10.394Z,961.52
2022-11-18T01:49:10.383Z,961.55
2022-11-18T01:50:11.458Z,961.54
2022-11-18T01:51:10.433Z,961.54
2022-11-18T01:52:10.447Z,961.59
2022-11-18T01:53:10.393Z,961.66
2022-11-18T01:54:10.352Z,961.60
2022-11-18T01:55:10.324Z,961.61
2022-11-18T01:56:10.362Z,961.64
2022-11-18T01:57:10.295Z,961.73
2022-11-18T01:58:10.272Z,961.67
2022-11-18T01:59:10.285Z,961.69
2022-11-18T02:00:10.285Z,961.65
2022-11-18T02:01:11.384Z,961.70
2022-11-18T02:02:10.303Z,961.72
2022-11-18T02:03:10.235Z,961.73
2022-11-18T02:04:32.188Z,961.67
2022-11-18T02:05:10.175Z,961.66
2022-11-18T02:06:10.234Z,961.73
2022-11-18T02:07:10.320Z,961.69
2022-11-18T02:08:10.177Z,961.71
2022-11-18T02:09:10.145Z,961.70
2022-11-18T02:10:10.116Z,961.73
2022-11-18T02:11:10.158Z,961.76
2022-11-18T02:12:10.229Z,961.67
2022-11-18T02:13:10.106Z,961.71
2022-11-18T02:14:10.086Z,961.67
2022-11-18T02:15:10.078Z,961.66
2022-11-18T02:16:10.110Z,961.63
2022-11-18T02:17:10.106Z,961.62
2022-11-18T02:18:10.046Z,961.55
2022-11-18T02:19:10.010Z,961.58
2022-11-18T02:20:09.985Z,961.60
2022-11-18T02:21:33.097Z,961.49
2022-11-18T02:22:10.047Z,961.50
2022-11-18T02:23:09.976Z,961.56
2022-11-18T02:24:09.946Z,961.48
2022-11-18T02:25:09.937Z,961.47
2022-11-18T02:26:09.958Z,961.47
2022-11-18T02:27:11.947Z,961.48
2022-11-18T02:28:09.905Z,961.51
2022-11-18T02:29:09.888Z,961.52
2022-11-18T02:30:09.889Z,961.51
2022-11-18T02:31:09.903Z,961.53
2022-11-18T02:32:09.899Z,961.51
2022-11-18T02:33:09.830Z,961.55
2022-11-18T02:34:09.807Z,961.55
2022-11-18T02:35:09.818Z,961.56
2022-11-18T02:36:09.819Z,961.48
2022-11-18T02:37:09.831Z,961.49
2022-11-18T02:38:09.871Z,961.51
2022-11-18T02:39:10.774Z,961.47
2022-11-18T02:40:09.753Z,961.51
2022-11-18T02:41:09.760Z,961.44
2022-11-18T02:42:09.771Z,961.45
2022-11-18T02:43:09.799Z,961.45
2022-11-18T02:44:09.786Z,961.45
2022-11-18T02:45:09.670Z,961.45
2022-11-18T02:46:09.640Z,961.44
2022-11-18T02:47:09.700Z,961.44
2022-11-18T02:48:09.728Z,961.41
2022-11-18T02:49:09.609Z,961.46
2022-11-18T02:50:09.613Z,961.51
2022-11-18T02:51:17.108Z,961.55
2022-11-18T02:52:09.633Z,961.47
2022-11-18T02:53:09.668Z,961.53
2022-11-18T02:54:09.631Z,961.55
2022-11-18T02:55:09.548Z,961.51
2022-11-18T02:56:09.529Z,961.50
2022-11-18T02:57:09.561Z,961.52
2022-11-18T02:58:09.610Z,961.52
2022-11-18T02:59:09.592Z,961.52
2022-11-18T03:00:09.580Z,961.53
2022-11-18T03:01:09.506Z,961.50
2022-11-18T03:02:09.501Z,961.48
2022-11-18T03:03:10.550Z,961.48
2022-11-18T03:04:10.422Z,961.49
2022-11-18T03:05:09.524Z,961.49
2022-11-18T03:06:09.423Z,961.46
2022-11-18T03:07:09.460Z,961.52
2022-11-18T03:08:09.433Z,961.50
2022-11-18T03:09:09.364Z,961.54
2022-11-18T03:10:09.344Z,961.49
2022-11-18T03:11:09.338Z,961.52
2022-11-18T03:12:09.361Z,961.52
2022-11-18T03:13:09.305Z,961.50
2022-11-18T03:14:09.293Z,961.50
2022-11-18T03:15:10.293Z,961.53
2022-11-18T03:16:09.285Z,961.51
2022-11-18T03:17:09.304Z,961.46
2022-11-18T03:18:09.283Z,961.47
2022-11-18T03:19:09.231Z,961.55
2022-11-18T03:20:09.321Z,961.56
2022-11-18T03:21:09.219Z,961.55
2022-11-18T03:22:09.185Z,961.60
2022-11-18T03:23:09.233Z,961.57
2022-11-18T03:24:09.256Z,961.51
2022-11-18T03:25:09.239Z,961.61
2022-11-18T03:26:30.262Z,961.60
2022-11-18T03:27:09.124Z,961.60
2022-11-18T03:28:09.153Z,961.56
2022-11-18T03:29:09.186Z,961.67
2022-11-18T03:30:09.175Z,961.63
2022-11-18T03:31:09.189Z,961.59
2022-11-18T03:32:09.207Z,961.61
2022-11-18T03:33:09.086Z,961.65
2022-11-18T03:34:09.126Z,961.71
2022-11-18T03:35:09.096Z,961.69
2022-11-18T03:36:09.115Z,961.68
2022-11-18T03:37:10.627Z,961.75
2022-11-18T03:38:08.976Z,961.72
2022-11-18T03:39:09.055Z,961.69
2022-11-18T03:40:09.045Z,961.72
2022-11-18T03:41:09.035Z,961.83
2022-11-18T03:42:08.935Z,961.85
2022-11-18T03:43:08.906Z,961.83
2022-11-18T03:44:09.011Z,961.86
2022-11-18T03:45:08.877Z,961.85
2022-11-18T03:46:08.878Z,961.91
2022-11-18T03:47:08.885Z,961.86
2022-11-18T03:48:08.905Z,961.91
2022-11-18T03:49:08.849Z,961.88
2022-11-18T03:50:08.815Z,961.90
2022-11-18T04:03:09.951Z,961.90
2022-11-18T04:04:09.938Z,961.86
2022-11-18T04:05:09.908Z,961.89
2022-11-18T04:06:09.927Z,961.83
2022-11-18T04:07:09.949Z,961.89
2022-11-18T04:08:09.948Z,961.86
2022-11-18T04:09:09.986Z,961.84
2022-11-18T04:10:09.839Z,961.91
2022-11-18T04:11:09.847Z,961.93
2022-11-18T04:12:09.832Z,961.89
2022-11-18T04:13:09.908Z,961.91
2022-11-18T04:14:09.918Z,961.89
2022-11-18T04:15:09.779Z,961.93
2022-11-18T04:16:09.816Z,961.92
2022-11-18T04:17:09.757Z,961.92
2022-11-18T04:18:09.808Z,961.97
2022-11-18T04:19:09.823Z,961.98
2022-11-18T04:20:09.766Z,961.99
2022-11-18T04:21:09.730Z,962.00
2022-11-18T04:22:09.690Z,962.02
2022-11-18T04:23:09.697Z,962.06
2022-11-18T04:24:09.658Z,962.05
2022-11-18T04:25:10.881Z,962.03
2022-11-18T04:26:09.659Z,962.09
2022-11-18T04:27:09.668Z,962.05
2022-11-18T04:28:09.753Z,962.03
2022-11-18T04:29:09.598Z,962.09
2022-11-18T04:30:09.645Z,962.12
2022-11-18T04:31:10.632Z,962.10
2022-11-18T04:32:09.598Z,962.13
2022-11-18T04:33:09.600Z,962.18
2022-11-18T04:34:09.616Z,962.12
2022-11-18T04:35:09.533Z,962.18
2022-11-18T04:36:09.501Z,962.18
2022-11-18T04:37:10.561Z,962.23
2022-11-18T04:38:09.534Z,962.13
2022-11-18T04:39:09.542Z,962.17
2022-11-18T04:40:09.478Z,962.13
2022-11-18T04:41:09.451Z,962.13
2022-11-18T04:42:09.463Z,962.19
2022-11-18T04:43:10.493Z,962.14
2022-11-18T04:44:09.485Z,962.15
2022-11-18T04:45:09.401Z,962.19
2022-11-18T04:46:09.386Z,962.14
2022-11-18T04:47:09.372Z,962.14
2022-11-18T04:48:09.351Z,962.13
2022-11-18T04:49:09.368Z,962.11
2022-11-18T04:50:09.323Z,962.10
2022-11-18T04:51:09.332Z,962.15
2022-11-18T04:52:10.293Z,962.17
2022-11-18T04:53:09.369Z,962.09
2022-11-18T04:54:09.271Z,962.19
2022-11-18T04:55:09.271Z,962.09
2022-11-18T04:56:09.248Z,962.12
2022-11-18T04:57:09.251Z,962.13
2022-11-18T04:58:09.223Z,962.19
2022-11-18T04:59:09.203Z,962.20
2022-11-18T05:00:09.204Z,962.16
2022-11-18T05:01:09.224Z,962.18
2022-11-18T05:02:10.174Z,962.13
2022-11-18T05:03:09.155Z,962.14
2022-11-18T05:04:09.155Z,962.20
2022-11-18T05:05:09.160Z,962.16
2022-11-18T05:06:09.124Z,962.10
2022-11-18T05:07:10.158Z,962.14
2022-11-18T05:08:09.096Z,962.16
2022-11-18T05:09:09.098Z,962.11
2022-11-18T05:10:09.073Z,962.18
2022-11-18T05:11:09.051Z,962.14
2022-11-18T05:12:10.036Z,962.14
2022-11-18T05:13:09.055Z,962.12
2022-11-18T05:14:09.029Z,962.14
2022-11-18T05:15:09.034Z,962.20
2022-11-18T05:16:09.019Z,962.16
2022-11-18T05:17:09.000Z,962.20
2022-11-18T05:18:10.016Z,962.21
2022-11-18T05:19:08.972Z,962.19
2022-11-18T05:20:08.935Z,962.29
2022-11-18T05:21:09.929Z,962.25
2022-11-18T05:22:08.927Z,962.28
2022-11-18T05:23:08.897Z,962.29
2022-11-18T05:24:08.875Z,962.28
2022-11-18T05:25:08.855Z,962.25
2022-11-18T05:26:08.867Z,962.30
2022-11-18T05:27:08.839Z,962.26
2022-11-18T05:28:08.827Z,962.23
2022-11-18T05:29:08.808Z,962.25
2022-11-18T05:30:08.799Z,962.26
2022-11-18T05:31:08.798Z,962.28
2022-11-18T05:32:08.778Z,962.29
2022-11-18T05:33:08.759Z,962.23
2022-11-18T05:34:08.749Z,962.25
2022-11-18T05:35:08.735Z,962.27
2022-11-18T05:36:08.740Z,962.26
2022-11-18T05:37:08.710Z,962.29
2022-11-18T05:38:08.699Z,962.28
2022-11-18T05:39:08.691Z,962.30
2022-11-18T05:40:08.679Z,962.28
2022-11-18T05:41:08.666Z,962.32
2022-11-18T05:42:08.645Z,962.35
2022-11-18T05:43:08.652Z,962.34
2022-11-18T05:44:08.641Z,962.35
2022-11-18T05:45:08.588Z,962.35
2022-11-18T05:46:08.617Z,962.39
2022-11-18T05:47:08.578Z,962.30
2022-11-18T05:48:08.609Z,962.29
2022-11-18T05:49:08.569Z,962.31
2022-11-18T05:50:08.542Z,962.29
2022-11-18T05:51:08.548Z,962.30
2022-11-18T05:52:08.517Z,962.37
2022-11-18T05:53:08.511Z,962.36
2022-11-18T05:54:08.520Z,962.31
2022-11-18T05:55:08.473Z,962.36
2022-11-18T05:56:08.471Z,962.38
2022-11-18T05:57:08.449Z,962.39
2022-11-18T05:58:08.430Z,962.46
2022-11-18T05:59:08.471Z,962.45
2022-11-18T06:00:08.420Z,962.45
2022-11-18T06:01:08.426Z,962.45
2022-11-18T06:02:08.381Z,962.51
2022-11-18T06:03:08.420Z,962.45
2022-11-18T06:04:08.359Z,962.45
2022-11-18T06:05:08.330Z,962.47
2022-11-18T06:06:08.369Z,962.42
2022-11-18T06:07:08.344Z,962.51
2022-11-18T06:08:08.299Z,962.48
2022-11-18T06:09:08.271Z,962.48
2022-11-18T06:10:08.270Z,962.48
2022-11-18T06:11:08.262Z,962.53
2022-11-18T06:12:08.250Z,962.49
2022-11-18T06:13:08.221Z,962.51
2022-11-18T06:14:08.221Z,962.50
2022-11-18T06:15:08.203Z,962.46
2022-11-18T06:16:08.211Z,962.47
2022-11-18T06:17:08.178Z,962.48
2022-11-18T06:18:08.161Z,962.48
2022-11-18T06:19:08.139Z,962.50
2022-11-18T06:20:08.142Z,962.54
2022-11-18T06:21:08.144Z,962.57
2022-11-18T06:22:08.116Z,962.58
2022-11-18T06:23:08.092Z,962.57
2022-11-18T06:24:08.092Z,962.60
2022-11-18T06:25:08.063Z,962.60
2022-11-18T06:26:08.072Z,962.58
2022-11-18T06:27:08.031Z,962.62
2022-11-18T06:28:08.032Z,962.68
2022-11-18T06:29:08.016Z,962.63
2022-11-18T06:30:08.021Z,962.60
2022-11-18T06:31:08.004Z,962.67
2022-11-18T06:32:07.981Z,962.68
2022-11-18T06:33:07.950Z,962.69
2022-11-18T06:34:07.955Z,962.68
2022-11-18T06:35:07.925Z,962.68
2022-11-18T06:36:07.934Z,962.73
2022-11-18T06:37:07.905Z,962.79
2022-11-18T06:38:07.899Z,962.79
2022-11-18T06:39:07.884Z,962.77
2022-11-18T06:40:07.866Z,962.76
2022-11-18T06:41:07.864Z,962.80
2022-11-18T06:42:07.855Z,962.82
2022-11-18T06:43:07.824Z,962.85
2022-11-18T06:44:07.816Z,962.79
2022-11-18T06:45:07.837Z,962.84
2022-11-18T06:46:09.341Z,962.82
2022-11-18T06:47:07.775Z,962.78
2022-11-18T06:48:07.772Z,962.82
2022-11-18T06:49:07.742Z,962.85
2022-11-18T06:50:07.748Z,962.86
2022-11-18T06:51:07.734Z,962.88
2022-11-18T06:52:07.724Z,962.91
2022-11-18T06:53:07.684Z,962.91
2022-11-18T06:54:10.862Z,962.88
2022-11-18T06:55:07.680Z,962.92
2022-11-18T06:56:07.704Z,962.96
2022-11-18T06:57:07.636Z,962.96
2022-11-18T06:58:07.648Z,962.97
2022-11-18T06:59:07.608Z,962.99
2022-11-18T07:00:07.596Z,963.00
2022-11-18T07:01:07.636Z,962.99
2022-11-18T07:02:07.576Z,963.06
2022-11-18T07:03:07.557Z,963.04
2022-11-18T07:04:07.570Z,963.03
2022-11-18T07:05:07.518Z,963.09
2022-11-18T07:06:07.527Z,963.05
2022-11-18T07:07:07.608Z,963.09
2022-11-18T07:08:07.488Z,963.09
2022-11-18T07:09:07.472Z,963.10
2022-11-18T07:10:07.456Z,963.09
2022-11-18T07:11:07.464Z,963.07
2022-11-18T07:12:07.447Z,963.10
2022-11-18T07:13:07.415Z,963.08
2022-11-18T07:14:07.430Z,963.17
2022-11-18T07:15:07.397Z,963.20
2022-11-18T07:16:07.414Z,963.18
2022-11-18T07:17:07.365Z,963.20
2022-11-18T07:18:07.377Z,963.25
2022-11-18T07:19:07.346Z,963.13
2022-11-18T07:20:07.332Z,963.27
2022-11-18T07:21:07.328Z,963.24
2022-11-18T07:22:07.355Z,963.28
2022-11-18T07:23:07.278Z,963.28
2022-11-18T07:24:07.281Z,963.29
2022-11-18T07:25:07.260Z,963.34
2022-11-18T07:26:07.269Z,963.32
2022-11-18T07:27:07.238Z,963.34
2022-11-18T07:28:07.225Z,963.34
2022-11-18T07:29:07.210Z,963.29
2022-11-18T07:30:07.198Z,963.37
2022-11-18T07:31:07.180Z,963.38
2022-11-18T07:32:07.197Z,963.42
2022-11-18T07:33:07.168Z,963.41
2022-11-18T07:34:07.146Z,963.43
2022-11-18T07:35:07.127Z,963.41
2022-11-18T07:36:07.140Z,963.42
2022-11-18T07:37:07.100Z,963.43
2022-11-18T07:38:07.080Z,963.46
2022-11-18T07:39:07.080Z,963.46
2022-11-18T07:40:07.067Z,963.47
2022-11-18T07:41:07.041Z,963.47
2022-11-18T07:42:07.066Z,963.44
2022-11-18T07:43:07.036Z,963.48
2022-11-18T07:44:07.013Z,963.42
2022-11-18T07:45:06.991Z,963.40
2022-11-18T07:46:06.979Z,963.48
2022-11-18T07:47:07.038Z,963.46
2022-11-18T07:48:06.971Z,963.52
2022-11-18T07:49:06.963Z,963.50
2022-11-18T07:50:06.954Z,963.48
2022-11-18T07:51:06.911Z,963.45
2022-11-18T07:52:06.932Z,963.47
2022-11-18T07:53:06.889Z,963.53
2022-11-18T07:54:06.933Z,963.56
2022-11-18T07:55:06.875Z,963.58
2022-11-18T07:56:06.861Z,963.60
2022-11-18T07:57:06.852Z,963.58
2022-11-18T07:58:06.850Z,963.54
2022-11-18T07:59:06.824Z,963.59
2022-11-18T08:00:06.795Z,963.59
2022-11-18T08:01:06.798Z,963.59
2022-11-18T08:02:06.888Z,963.57
2022-11-18T08:03:06.763Z,963.61
2022-11-18T08:04:06.764Z,963.63
2022-11-18T08:05:06.777Z,963.65
2022-11-18T08:06:06.705Z,963.62
2022-11-18T08:07:06.727Z,963.64
2022-11-18T08:08:06.683Z,963.64
2022-11-18T08:09:06.683Z,963.75
2022-11-18T08:10:06.652Z,963.65
2022-11-18T08:11:06.645Z,963.64
2022-11-18T08:12:06.653Z,963.68
2022-11-18T08:13:06.620Z,963.63
2022-11-18T08:14:06.605Z,963.76
2022-11-18T08:15:06.615Z,963.69
2022-11-18T08:16:06.573Z,963.73
2022-11-18T08:17:06.582Z,963.72
2022-11-18T08:18:10.960Z,963.69
2022-11-18T08:19:07.553Z,963.74
2022-11-18T08:20:06.524Z,963.72
2022-11-18T08:21:06.532Z,963.72
2022-11-18T08:22:06.589Z,963.74
2022-11-18T08:23:06.516Z,963.77
2022-11-18T08:24:06.536Z,963.75
2022-11-18T08:25:06.476Z,963.77
2022-11-18T08:26:06.513Z,963.77
2022-11-18T08:27:06.447Z,963.77
2022-11-18T08:28:06.469Z,963.78
2022-11-18T08:29:06.461Z,963.76
2022-11-18T08:30:06.417Z,963.81
2022-11-18T08:31:06.407Z,963.80
2022-11-18T08:32:06.374Z,963.78
2022-11-18T08:33:06.415Z,963.82
2022-11-18T08:34:06.377Z,963.80
2022-11-18T08:35:10.838Z,963.85
2022-11-18T08:36:07.326Z,963.83
2022-11-18T08:37:06.318Z,963.80
2022-11-18T08:38:06.315Z,963.88
2022-11-18T08:39:06.307Z,963.83
2022-11-18T08:40:06.291Z,963.87
2022-11-18T08:41:06.255Z,963.87
2022-11-18T08:42:06.266Z,963.86
2022-11-18T08:43:06.236Z,963.89
2022-11-18T08:44:06.235Z,963.86
2022-11-18T08:45:06.217Z,963.93
2022-11-18T08:46:06.203Z,963.90
2022-11-18T08:47:06.195Z,963.92
2022-11-18T08:48:06.168Z,963.88
2022-11-18T08:49:06.146Z,963.97
2022-11-18T08:50:06.129Z,963.96
2022-11-18T08:51:13.671Z,963.95
2022-11-18T08:52:06.115Z,963.98
2022-11-18T08:53:06.122Z,964.02
2022-11-18T08:54:06.092Z,963.95
2022-11-18T08:55:06.076Z,964.00
2022-11-18T08:56:07.076Z,964.06
2022-11-18T08:57:06.049Z,964.04
2022-11-18T08:58:06.028Z,964.05
2022-11-18T08:59:06.018Z,964.02
2022-11-18T09:00:05.998Z,964.03
2022-11-18T09:01:27.043Z,964.03
2022-11-18T09:02:07.036Z,964.08
2022-11-18T09:03:05.987Z,963.99
2022-11-18T09:04:05.975Z,964.10
2022-11-18T09:05:05.937Z,964.09
2022-11-18T09:06:05.946Z,964.09
2022-11-18T09:07:05.972Z,964.12
2022-11-18T09:08:05.907Z,964.12
2022-11-18T09:09:18.529Z,964.07
2022-11-18T09:10:06.878Z,964.10
2022-11-18T09:11:05.856Z,964.07
2022-11-18T09:12:06.877Z,964.07
2022-11-18T09:13:32.774Z,964.06
2022-11-18T09:15:13.335Z,964.06
2022-11-18T09:16:06.798Z,964.12
2022-11-18T09:17:05.775Z,964.12
2022-11-18T09:18:05.788Z,964.11
2022-11-18T09:19:31.543Z,964.15
2022-11-18T09:20:07.738Z,964.14
2022-11-18T09:21:05.748Z,964.22
2022-11-18T09:22:06.729Z,964.17
2022-11-18T09:23:06.698Z,964.15
2022-11-18T09:24:05.691Z,964.20
2022-11-18T09:25:05.668Z,964.28
2022-11-18T09:26:05.659Z,964.16
2022-11-18T09:27:05.648Z,964.23
2022-11-18T09:28:05.651Z,964.21
2022-11-18T09:29:05.628Z,964.19
2022-11-18T09:30:05.600Z,964.30
2022-11-18T09:31:05.601Z,964.26
2022-11-18T09:32:05.606Z,964.28
2022-11-18T09:33:05.586Z,964.31
2022-11-18T09:34:05.561Z,964.24
2022-11-18T09:35:05.530Z,964.27
2022-11-18T09:36:05.547Z,964.29
2022-11-18T09:37:06.949Z,964.29
2022-11-18T09:38:05.520Z,964.31
2022-11-18T09:39:05.523Z,964.25
2022-11-18T09:40:05.481Z,964.37
2022-11-18T09:41:05.459Z,964.38
2022-11-18T09:42:06.472Z,964.37
2022-11-18T09:43:05.439Z,964.42
2022-11-18T09:44:05.420Z,964.35
2022-11-18T09:45:11.709Z,964.41
2022-11-18T09:46:06.437Z,964.37
2022-11-18T09:47:05.387Z,964.39
2022-11-18T10:03:44.337Z,964.52
2022-11-18T10:04:44.315Z,964.50
2022-11-18T10:05:44.297Z,964.52
2022-11-18T10:06:44.297Z,964.52
2022-11-18T10:07:44.345Z,964.52
2022-11-18T10:08:44.277Z,964.52
2022-11-18T10:09:44.279Z,964.53
2022-11-18T10:10:44.264Z,964.58
2022-11-18T10:11:49.015Z,964.59
2022-11-18T10:12:45.228Z,964.57
2022-11-18T10:13:44.247Z,964.65
2022-11-18T10:14:44.219Z,964.59
2022-11-18T10:15:44.216Z,964.64
2022-11-18T10:17:34.206Z,964.63
2022-11-18T10:19:35.189Z,964.60
2022-11-18T10:20:34.175Z,964.63
2022-11-18T10:21:34.147Z,964.66
2022-11-18T10:22:35.146Z,964.66
2022-11-18T10:23:34.138Z,964.71
2022-11-18T10:24:35.127Z,964.68
2022-11-18T10:25:34.097Z,964.65
2022-11-18T10:26:34.085Z,964.71
2022-11-18T10:27:34.067Z,964.71
2022-11-18T10:28:34.059Z,964.68
2022-11-18T10:29:34.067Z,964.71
2022-11-18T10:30:34.048Z,964.71
2022-11-18T10:31:34.018Z,964.75
2022-11-18T10:32:34.023Z,964.69
2022-11-18T10:33:33.990Z,964.73
2022-11-18T10:34:33.988Z,964.76
2022-11-18T10:35:33.977Z,964.67
2022-11-18T10:36:33.970Z,964.79
2022-11-18T10:38:05.750Z,964.73
2022-11-18T10:38:34.959Z,964.78
2022-11-18T10:39:33.920Z,964.75
2022-11-18T10:40:33.907Z,964.74
2022-11-18T10:41:33.895Z,964.80
2022-11-18T10:42:33.877Z,964.79
2022-11-18T10:43:33.886Z,964.76
2022-11-18T10:44:34.858Z,964.72
2022-11-18T10:45:33.828Z,964.72
2022-11-18T10:46:35.921Z,964.72
2022-11-18T10:47:33.821Z,964.77
2022-11-18T10:48:33.798Z,964.79
2022-11-18T10:49:33.790Z,964.77
2022-11-18T10:50:33.788Z,964.82
2022-11-18T10:51:34.760Z,964.74
2022-11-18T10:52:33.757Z,964.79
2022-11-18T10:53:34.768Z,964.83
2022-11-18T10:54:33.777Z,964.81
2022-11-18T10:55:34.700Z,964.80
2022-11-18T10:56:33.709Z,964.83
2022-11-18T10:57:33.699Z,964.75
2022-11-18T10:58:33.677Z,964.78
2022-11-18T10:59:33.659Z,964.82
2022-11-18T11:00:33.660Z,964.84
2022-11-18T11:01:33.637Z,964.79
2022-11-18T11:02:33.652Z,964.80
2022-11-18T11:03:33.602Z,964.81
2022-11-18T11:04:33.595Z,964.77
2022-11-18T11:05:33.579Z,964.82
2022-11-18T11:06:34.580Z,964.81
2022-11-18T11:07:33.600Z,964.82
2022-11-18T11:08:37.747Z,964.83
2022-11-18T11:09:33.528Z,964.81
2022-11-18T11:10:33.521Z,964.86
2022-11-18T11:11:33.486Z,964.84
2022-11-18T11:12:33.492Z,964.87
2022-11-18T11:13:33.477Z,964.80
2022-11-18T11:14:33.462Z,964.80
2022-11-18T11:15:33.464Z,964.85
2022-11-18T11:16:33.432Z,964.84
2022-11-18T11:17:34.457Z,964.89
2022-11-18T11:18:33.424Z,964.86
2022-11-18T11:19:33.428Z,964.88
2022-11-18T11:20:33.394Z,964.80
2022-11-18T11:21:34.382Z,964.82
2022-11-18T11:22:33.361Z,964.74
2022-11-18T11:23:33.348Z,964.82
2022-11-18T11:24:33.353Z,964.82
2022-11-18T11:28:34.316Z,964.83
2022-11-18T11:29:33.264Z,964.82
2022-11-18T11:30:33.263Z,964.88
2022-11-18T11:31:33.241Z,964.84
2022-11-18T11:32:33.225Z,964.82
2022-11-18T11:33:33.221Z,964.89
2022-11-18T11:34:33.204Z,964.86
2022-11-18T11:35:33.191Z,964.87
2022-11-18T11:36:33.172Z,964.91
2022-11-18T11:37:33.171Z,964.89
2022-11-18T11:38:34.143Z,964.88
2022-11-18T11:39:33.149Z,964.81
2022-11-18T11:40:33.135Z,964.92
2022-11-18T11:41:33.116Z,964.94
2022-11-18T11:42:33.095Z,964.93
2022-11-18T11:43:33.073Z,964.93
2022-11-18T11:44:33.073Z,964.92
2022-11-18T11:45:33.079Z,964.94
2022-11-18T11:46:34.035Z,964.97
2022-11-18T11:47:33.034Z,964.90
2022-11-18T11:48:33.003Z,964.97
2022-11-18T11:49:33.052Z,964.99
2022-11-18T11:50:32.992Z,964.92
2022-11-18T11:51:32.975Z,964.98
2022-11-18T11:52:32.967Z,964.90
2022-11-18T11:53:32.945Z,965.00
2022-11-18T11:54:32.944Z,964.98
2022-11-18T11:55:33.955Z,964.95
2022-11-18T11:56:32.915Z,964.97
2022-11-18T11:57:32.906Z,964.95
2022-11-18T11:58:32.876Z,964.94
2022-11-18T11:59:32.877Z,964.95
2022-11-18T12:00:32.866Z,965.01
2022-11-18T12:01:32.847Z,964.96
2022-11-18T12:02:32.855Z,964.96
2022-11-18T12:03:32.816Z,964.96
2022-11-18T12:04:32.809Z,964.95
2022-11-18T12:05:32.816Z,964.99
2022-11-18T12:06:32.779Z,964.92
2022-11-18T12:07:32.849Z,964.94
2022-11-18T12:08:32.756Z,964.96
2022-11-18T12:09:32.758Z,964.99
2022-11-18T12:10:33.728Z,964.97
2022-11-18T12:11:33.719Z,964.94
2022-11-18T12:12:32.697Z,964.91
2022-11-18T12:13:32.705Z,964.88
2022-11-18T12:14:37.100Z,964.97
2022-11-18T12:15:33.677Z,964.96
2022-11-18T12:16:32.658Z,964.96
2022-11-18T12:17:32.637Z,964.95
2022-11-18T12:18:32.634Z,965.01
2022-11-18T12:19:33.615Z,965.01
2022-11-18T12:20:32.627Z,965.00
2022-11-18T12:21:35.166Z,965.01
2022-11-18T12:22:32.568Z,965.00
2022-11-18T12:23:32.570Z,964.98
2022-11-18T12:24:32.572Z,965.03
2022-11-18T12:25:32.576Z,965.04
2022-11-18T12:26:32.519Z,965.06
2022-11-18T12:27:32.527Z,964.98
2022-11-18T12:28:32.527Z,964.97
2022-11-18T12:29:32.478Z,964.93
2022-11-18T12:30:32.479Z,964.99
2022-11-18T12:31:32.448Z,965.00
2022-11-18T12:32:32.430Z,965.04
2022-11-18T12:33:32.445Z,964.96
2022-11-18T12:34:32.424Z,965.01
2022-11-18T12:35:32.417Z,965.03
2022-11-18T12:36:32.380Z,964.95
2022-11-18T12:37:32.387Z,965.04
2022-11-18T12:38:32.380Z,964.97
2022-11-18T12:39:32.350Z,964.94
2022-11-18T12:40:32.352Z,964.93
2022-11-18T12:41:32.330Z,964.95
2022-11-18T12:42:32.324Z,964.98
2022-11-18T12:43:33.323Z,965.00
2022-11-18T12:44:32.290Z,965.04
2022-11-18T12:45:32.301Z,965.05
2022-11-18T12:46:32.320Z,965.03
2022-11-18T12:47:32.411Z,965.07
2022-11-18T12:48:32.339Z,964.98
2022-11-18T12:49:33.273Z,965.02
2022-11-18T12:50:32.280Z,965.04
2022-11-18T12:51:32.282Z,965.10
2022-11-18T12:52:32.269Z,965.06
2022-11-18T12:53:32.289Z,965.09
2022-11-18T12:54:32.172Z,965.10
2022-11-18T12:55:32.216Z,965.08
2022-11-18T12:56:32.192Z,965.05
2022-11-18T12:57:32.220Z,965.09
2022-11-18T12:58:32.111Z,965.11
2022-11-18T12:59:32.113Z,965.13
2022-11-18T13:00:32.190Z,965.15
2022-11-18T13:01:32.062Z,965.18